La Jolla Heights (636, 617) Station Data

Red Flag Warning: No
Fire Weather Zone: 243
SDGE Region: Beach Cities
Lat/Lon: 32.844/-117.24

Observations

Time Wind Speed/Gust Temp(F) RH Fuel Moist Fuel Temp(F) Dewpt(F) Tmax(F) Tmin(F) Accum Precip 10-min Precip SL Press(mb)
3/29 8:00am 78 2 G 3 57° 57% - - 42° 60.1° 53.4° - - -
3/29 7:50am 66 3 G 4 56° 58% - - 42° 60.1° 53.4° - - -
3/29 7:40am 57 2 G 4 56° 59% - - 42° 60.1° 53.4° - - -
3/29 7:30am 348 2 G 4 58° 60% - - 44° 60.1° 53.4° - - -
3/29 7:20am 2 3 G 5 56° 59% - - 42° 60.1° 53.4° - - -
3/29 7:10am 341 3 G 4 58° 52% - - 40° 60.1° 53.4° - - -
3/29 7:00am 248 2 G 4 58° 50% - - 39° 60.1° 53.4° - - -
3/29 6:50am 137 3 G 4 58° 50% - - 39° 60.1° 53.4° - - -
3/29 6:40am 153 3 G 4 57° 53% - - 40° 60.1° 53.4° - - -
3/29 6:30am 115 4 G 5 56° 55% - - 40° 60.1° 53.4° - - -
3/29 6:20am 134 5 G 5 56° 56% - - 41° 60.1° 53.4° - - -
3/29 6:10am 132 4 G 6 55° 59% - - 41° 60.1° 53.4° - - -
3/29 6:00am 122 3 G 4 55° 61% - - 41° 60.1° 53.4° - - -
3/29 5:50am 97 3 G 4 55° 59% - - 41° 60.1° 53.4° - - -
3/29 5:40am 106 3 G 6 56° 58% - - 41° 60.1° 53.4° - - -
3/29 5:30am 118 3 G 5 56° 57% - - 41° 60.1° 53.4° - - -
3/29 5:20am 105 2 G 4 55° 60% - - 42° 60.1° 53.4° - - -
3/29 5:10am 88 3 G 4 55° 61% - - 42° 60.1° 53.4° - - -
3/29 5:00am 126 4 G 6 55° 60% - - 42° 60.1° 53.4° - - -
3/29 4:50am 130 4 G 5 55° 60% - - 41° 60.1° 53.4° - - -
3/29 4:40am 120 2 G 4 58° 55% - - 42° 60.1° 54.3° - - -
3/29 4:30am 117 0 G 1 58° 56% - - 43° 60.1° 54.3° - - -
3/29 4:20am 105 1 G 2 58° 55% - - 42° 60.1° 54.3° - - -
3/29 4:10am 49 1 G 2 59° 52% - - 41° 60.1° 54.3° - - -
3/29 4:00am 50 2 G 2 59° 51% - - 41° 59.9° 54.3° - - -
3/29 3:50am 17 2 G 3 59° 53% - - 42° 59.9° 54.3° - - -
3/29 3:40am 354 3 G 4 58° 55% - - 42° 59.1° 54.3° - - -
3/29 3:30am 40 2 G 3 58° 55% - - 42° 59.1° 54.3° - - -
3/29 3:20am 158 2 G 5 58° 55% - - 41° 59.1° 54.3° - - -
3/29 3:10am 104 3 G 4 57° 55% - - 41° 59.1° 54.3° - - -
3/29 3:00am 127 5 G 7 55° 59% - - 41° 59.1° 54.3° - - -
3/29 2:50am 145 6 G 7 58° 54% - - 41° 59.1° 54.3° - - -
3/29 2:40am 142 5 G 6 58° 53% - - 41° 59.1° 54.3° - - -
3/29 2:30am 145 4 G 6 58° 55% - - 42° 59° 54.3° - - -
3/29 2:20am 135 4 G 6 57° 56% - - 41° 59° 54.3° - - -
3/29 2:10am 94 4 G 7 57° 55% - - 41° 59° 54.3° - - -
3/29 2:00am 79 5 G 7 58° 54% - - 42° 59° 54.3° - - -
3/29 1:50am 92 4 G 5 57° 57% - - 42° 59° 54.3° - - -
3/29 1:40am 77 4 G 5 56° 58% - - 41° 59° 54.3° - - -
3/29 1:30am 65 5 G 6 56° 57% - - 41° 59° 54.3° - - -
3/29 1:20am 67 4 G 6 56° 57% - - 41° 59° 54.3° - - -
3/29 1:10am 81 3 G 5 55° 57% - - 40° 59° 54.3° - - -
3/29 1:00am 101 5 G 6 57° 53% - - 40° 59° 54.4° - - -
3/29 12:50am 110 4 G 7 57° 52% - - 39° 59° 56.1° - - -
3/29 12:40am 111 5 G 5 57° 52% - - 40° 59° 56.1° - - -
3/29 12:30am 135 5 G 6 58° 50% - - 40° 59° 56.1° - - -
3/29 12:20am 124 5 G 6 57° 53% - - 40° 58° 56.1° - - -
3/29 12:10am 117 4 G 6 57° 55% - - 41° 57.8° 56.1° - - -
3/29 12:00am 104 4 G 5 58° 55% - - 42° 66° 49° - - -
3/28 11:50pm 113 4 G 4 57° 58% - - 42° 66° 49° - - -
3/28 11:40pm 105 4 G 4 56° 62% - - 44° 66° 49° - - -
3/28 11:30pm 108 3 G 4 56° 63% - - 44° 66° 49° - - -
3/28 11:20pm 103 3 G 4 58° 58% - - 43° 66° 49° - - -
3/28 11:10pm 145 3 G 4 60° 49% - - 41° 66° 49° - - -
3/28 11:00pm 142 3 G 3 60° 51% - - 42° 66° 49° - - -
3/28 10:50pm 143 3 G 3 62° 47% - - 41° 66° 49° - - -
3/28 10:40pm 164 2 G 3 61° 50% - - 43° 66° 49° - - -
3/28 10:30pm 138 3 G 3 61° 50% - - 43° 66° 49° - - -
3/28 10:20pm 129 2 G 3 61° 51% - - 43° 66° 49° - - -
3/28 10:10pm 117 0 G 2 61° 51% - - 43° 66° 49° - - -
3/28 10:00pm 143 1 G 2 61° 52% - - 44° 66° 49° - - -
3/28 9:50pm 93 1 G 2 61° 52% - - 44° 66° 49° - - -
3/28 9:40pm 23 0 G 1 61° 52% - - 44° 66° 49° - - -
3/28 9:30pm 138 0 G 1 61° 53% - - 44° 66° 49° - - -
3/28 9:20pm 134 2 G 3 62° 53% - - 44° 66° 49° - - -
3/28 9:10pm 118 2 G 4 61° 53% - - 44° 66° 49° - - -
3/28 9:00pm 124 2 G 3 61° 54% - - 45° 66° 49° - - -
3/28 8:50pm 132 1 G 2 61° 54% - - 44° 66° 49° - - -
3/28 8:40pm 99 2 G 2 61° 53% - - 44° 66° 49° - - -
3/28 8:30pm 38 1 G 2 61° 54% - - 44° 66° 49° - - -
3/28 8:20pm 45 1 G 2 61° 55% - - 44° 66° 49° - - -
3/28 8:10pm 332 1 G 3 61° 56% - - 45° 66° 49° - - -
3/28 8:00pm 288 2 G 3 61° 59% - - 46° 66° 49° - - -
3/28 7:50pm 278 2 G 2 60° 63% - - 48° 66° 49° - - -
3/28 7:40pm 295 2 G 3 60° 65% - - 49° 66° 49° - - -
3/28 7:30pm 312 3 G 3 60° 64% - - 48° 66° 49° - - -
3/28 7:20pm 288 2 G 3 60° 63% - - 48° 66° 49° - - -
3/28 7:10pm 254 3 G 4 60° 65% - - 48° 66° 49° - - -
3/28 7:00pm 271 2 G 3 61° 66% - - 50° 66° 49° - - -
3/28 6:50pm 270 2 G 3 62° 65% - - 50° 66° 49° - - -
3/28 6:40pm 256 2 G 4 62° 67% - - 51° 66° 49° - - -
3/28 6:30pm 265 2 G 5 62° 63% - - 50° 66° 49° - - -
3/28 6:20pm 285 4 G 7 63° 61% - - 49° 66° 49° - - -
3/28 6:10pm 300 6 G 11 63° 63% - - 50° 66° 49° - - -
3/28 6:00pm 279 6 G 10 63° 69% - - 52° 66° 49° - - -
3/28 5:50pm 291 5 G 9 62° 71% - - 53° 66° 49° - - -
3/28 5:40pm 284 7 G 12 63° 71% - - 53° 66° 49° - - -
3/28 5:30pm 279 7 G 12 63° 70% - - 53° 66° 49° - - -
3/28 5:20pm 273 8 G 12 63° 69% - - 53° 66° 49° - - -
3/28 5:10pm 276 8 G 12 63° 69% - - 53° 66° 49° - - -
3/28 5:00pm 273 9 G 15 63° 70% - - 53° 66° 49° - - -
3/28 4:50pm 279 10 G 15 63° 70% - - 53° 66° 49° - - -
3/28 4:40pm 262 10 G 16 63° 69% - - 52° 66° 49° - - -
3/28 4:30pm 279 9 G 16 64° 68% - - 53° 66° 49° - - -
3/28 4:20pm 276 9 G 16 63° 70% - - 53° 66° 49° - - -
3/28 4:10pm 281 10 G 14 63° 74% - - 54° 66° 49° - - -
3/28 4:00pm 277 10 G 15 63° 68% - - 53° 66° 49° - - -
3/28 3:50pm 271 9 G 14 64° 67% - - 53° 66° 49° - - -
3/28 3:40pm 273 10 G 14 64° 63% - - 51° 66° 49° - - -
3/28 3:30pm 280 10 G 15 64° 64% - - 51° 66° 49° - - -
3/28 3:20pm 285 9 G 14 64° 62% - - 50° 66° 49° - - -
3/28 3:10pm 289 10 G 15 63° 63% - - 51° 66° 49° - - -
3/28 3:00pm 274 9 G 15 64° 65% - - 52° 66° 49° - - -
3/28 2:50pm 287 9 G 14 63° 66% - - 52° 66° 49° - - -
3/28 2:40pm 278 9 G 14 64° 65% - - 52° 66° 49° - - -
3/28 2:30pm 274 9 G 15 64° 61% - - 50° 66° 49° - - -
3/28 2:20pm 282 9 G 13 63° 62% - - 50° 66° 49° - - -
3/28 2:10pm 280 8 G 14 63° 68% - - 52° 66° 49° - - -
3/28 2:00pm 277 9 G 14 63° 68% - - 53° 66° 49° - - -
3/28 1:50pm 281 10 G 16 63° 71% - - 53° 66° 49° - - -
3/28 1:40pm 276 10 G 16 63° 68% - - 52° 66° 49° - - -
3/28 1:30pm 293 10 G 15 63° 67% - - 51° 66° 49° - - -
3/28 1:20pm 286 10 G 14 63° 66% - - 51° 66° 49° - - -
3/28 1:10pm 275 10 G 16 64° 52% - - 46° 66° 49° - - -
3/28 1:00pm 278 9 G 14 64° 48% - - 43° 64.6° 49° - - -
3/28 12:50pm 281 8 G 14 63° 53% - - 45° 63.8° 49° - - -
3/28 12:40pm 276 10 G 16 62° 57% - - 47° 63.4° 49° - - -
3/28 12:30pm 274 10 G 16 63° 58% - - 48° 63.2° 49° - - -
3/28 12:20pm 272 10 G 15 62° 58% - - 47° 63.1° 49° - - -
3/28 12:10pm 277 10 G 15 62° 63% - - 49° 62.6° 49° - - -
3/28 12:00pm 287 9 G 13 62° 62% - - 48° 62.2° 49° - - -
3/28 11:50am 287 8 G 14 61° 61% - - 48° 62.2° 49° - - -
3/28 11:40am 281 10 G 17 61° 68% - - 50° 62° 49° - - -
3/28 11:30am 285 9 G 14 61° 70% - - 51° 61.6° 49° - - -
3/28 11:20am 292 8 G 13 61° 69% - - 50° 61.4° 49° - - -
3/28 11:10am 286 7 G 11 61° 69% - - 51° 61.4° 49° - - -
3/28 11:00am 296 6 G 11 61° 69% - - 50° 61.3° 49° - - -
3/28 10:50am 284 7 G 9 60° 68% - - 50° 61.2° 49° - - -
3/28 10:40am 281 6 G 10 60° 72% - - 51° 61° 49° - - -
3/28 10:30am 288 6 G 10 60° 71% - - 51° 61° 49° - - -
3/28 10:20am 274 5 G 10 60° 72% - - 51° 60.5° 49° - - -
3/28 10:10am 278 6 G 10 59° 75% - - 52° 60.3° 49° - - -
3/28 10:00am 286 6 G 8 59° 76% - - 52° 59.8° 49° - - -
3/28 9:50am 287 5 G 9 59° 78% - - 52° 59.4° 49° - - -
3/28 9:40am 284 5 G 8 59° 79% - - 52° 59.4° 49° - - -
3/28 9:30am 296 4 G 8 59° 80% - - 52° 59.4° 49° - - -
3/28 9:20am 302 3 G 5 58° 81% - - 52° 59.4° 49° - - -
3/28 9:10am 318 3 G 6 59° 79% - - 52° 59.4° 49° - - -
3/28 9:00am 313 1 G 3 58° 81% - - 52° 58.8° 49° - - -
3/28 8:50am 72 2 G 5 58° 79% - - 51° 58.3° 49° - - -
3/28 8:40am 118 1 G 4 56° 82% - - 51° 58.2° 49° - - -
3/28 8:30am 83 3 G 5 56° 82% - - 50° 56.5° 49° - - -
3/28 8:20am 85 2 G 4 55° 84% - - 50° 55.6° 49° - - -
3/28 8:10am 78 2 G 3 53° 86% - - 50° 55.4° 49° - - -
3/28 8:00am 80 2 G 4 54° 86% - - 50° 55.4° 49° - - -
3/28 7:50am 114 2 G 3 54° 88% - - 50° 55.4° 49° - - -
3/28 7:40am 120 3 G 4 53° 89% - - 49° 55.4° 49° - - -
3/28 7:30am 110 3 G 4 51° 90% - - 49° 55.4° 49° - - -
3/28 7:20am 117 4 G 5 52° 90% - - 49° 55.4° 49° - - -
3/28 7:10am 133 2 G 4 51° 91% - - 49° 55.4° 49° - - -
3/28 7:00am 109 4 G 6 51° 92% - - 49° 55.4° 49° - - -
3/28 6:50am 137 4 G 6 50° 91% - - 48° 55.4° 49° - - -
3/28 6:40am 133 4 G 6 52° 92% - - 49° 55.4° 49° - - -
3/28 6:30am 149 5 G 6 51° 92% - - 49° 55.4° 49° - - -
3/28 6:20am 148 3 G 5 51° 93% - - 49° 55.4° 49° - - -
3/28 6:10am 119 4 G 5 51° 92% - - 49° 55.4° 49° - - -
3/28 6:00am 139 3 G 5 51° 93% - - 49° 55.4° 49° - - -